Time;durP1;ratioP1;P1;durP2;ratioP2;P2;SDS_P1;SDS_P2;PMS_P1;PMS_P2;Temp;Humidity;BMP_temperature;BMP_pressure;BME280_temperature;BME280_humidity;BME280_pressure;Samples;Min_cycle;Max_cycle;Signal;HPM_P1;HPM_P2
2023/06/04 00:00:06;;;;;;;1.83;1.40;;;16.70;70.70;;;;;;4993704;28;20088;-83
2023/06/04 00:02:32;;;;;;;3.38;1.45;;;16.60;70.90;;;;;;4993666;28;20033;-83
2023/06/04 00:04:58;;;;;;;1.80;1.00;;;16.50;71.00;;;;;;4993350;28;20039;-83
2023/06/04 00:07:23;;;;;;;1.30;1.20;;;16.50;71.10;;;;;;4992700;28;20054;-83
2023/06/04 00:09:49;;;;;;;1.60;1.10;;;16.50;71.10;;;;;;4993405;28;20043;-83
2023/06/04 00:12:15;;;;;;;2.10;1.10;;;16.40;71.30;;;;;;4976649;28;20030;-83
2023/06/04 00:14:41;;;;;;;1.90;1.20;;;16.40;71.50;;;;;;4977013;28;20022;-83
2023/06/04 00:17:08;;;;;;;1.10;0.95;;;16.40;71.50;;;;;;4993098;28;20023;-83
2023/06/04 00:19:35;;;;;;;1.63;1.02;;;16.40;71.50;;;;;;4977097;28;20034;-83
2023/06/04 00:22:00;;;;;;;2.30;1.20;;;16.40;71.60;;;;;;4977431;28;20034;-83
2023/06/04 00:24:26;;;;;;;1.42;1.00;;;16.40;71.50;;;;;;4977188;28;20133;-83
2023/06/04 00:26:52;;;;;;;1.90;1.25;;;16.40;71.50;;;;;;4993071;28;20372;-83
2023/06/04 00:29:17;;;;;;;3.38;1.23;;;16.40;71.70;;;;;;4977244;28;20481;-83
2023/06/04 00:31:43;;;;;;;1.48;0.98;;;16.30;71.60;;;;;;4993145;28;20038;-83
2023/06/04 00:34:10;;;;;;;1.73;1.17;;;16.30;71.80;;;;;;4994497;28;20034;-83
2023/06/04 00:36:36;;;;;;;2.08;1.20;;;16.20;71.80;;;;;;4994360;28;20431;-83
2023/06/04 00:39:02;;;;;;;2.95;1.27;;;16.20;71.90;;;;;;4994995;28;20054;-83
2023/06/04 00:41:27;;;;;;;1.33;1.00;;;16.10;71.90;;;;;;4976948;28;20034;-83
2023/06/04 00:43:56;;;;;;;2.30;1.20;;;16.10;71.90;;;;;;4994395;28;20034;-83
2023/06/04 00:46:24;;;;;;;1.35;1.00;;;16.10;72.60;;;;;;4992574;28;20038;-83
2023/06/04 00:48:50;;;;;;;2.15;1.20;;;16.00;71.90;;;;;;4977112;28;20042;-83
2023/06/04 00:51:16;;;;;;;1.75;1.02;;;16.00;72.00;;;;;;4977016;28;20459;-83
2023/06/04 00:53:42;;;;;;;2.28;1.17;;;16.00;72.10;;;;;;4994653;28;20062;-83
2023/06/04 00:56:08;;;;;;;1.88;0.93;;;16.00;72.10;;;;;;4994842;28;20483;-83
2023/06/04 00:58:42;;;;;;;1.10;1.00;;;16.00;72.10;;;;;;4995262;28;20471;-83
2023/06/04 01:01:18;;;;;;;1.65;1.13;;;16.00;72.00;;;;;;5014430;28;20050;-82
2023/06/04 01:03:48;;;;;;;2.33;1.20;;;16.00;72.00;;;;;;5017926;28;20054;-82
2023/06/04 01:06:21;;;;;;;2.20;1.10;;;15.90;71.90;;;;;;5001468;28;20026;-83
2023/06/04 01:08:54;;;;;;;1.88;1.23;;;15.90;72.10;;;;;;5007182;28;20057;-83
2023/06/04 01:11:32;;;;;;;2.42;1.10;;;15.80;72.20;;;;;;4974413;28;20027;-83
2023/06/04 01:13:58;;;;;;;1.90;1.10;;;15.70;72.40;;;;;;4974129;28;20030;-83
2023/06/04 01:16:28;;;;;;;1.88;1.00;;;15.70;72.50;;;;;;4957856;28;20038;-83
2023/06/04 01:18:57;;;;;;;2.03;1.30;;;15.70;72.60;;;;;;4992191;28;20023;-83
2023/06/04 01:21:26;;;;;;;1.98;0.95;;;15.70;72.60;;;;;;4976471;28;20364;-83
2023/06/04 01:24:00;;;;;;;3.90;1.33;;;15.70;72.60;;;;;;4976724;28;20034;-82
2023/06/04 01:26:27;;;;;;;2.70;1.25;;;15.60;72.50;;;;;;4946415;28;20023;-83
2023/06/04 01:28:55;;;;;;;3.65;1.38;;;15.60;72.50;;;;;;4976533;28;20091;-83
2023/06/04 01:31:22;;;;;;;1.20;1.10;;;15.50;72.60;;;;;;4976301;28;20046;-83
2023/06/04 01:33:57;;;;;;;2.13;1.30;;;15.50;72.60;;;;;;4992394;28;20221;-82
2023/06/04 01:36:23;;;;;;;1.35;1.15;;;15.50;72.60;;;;;;4976554;28;20027;-83
2023/06/04 01:38:50;;;;;;;2.63;0.98;;;15.50;72.50;;;;;;4977236;28;20023;-82
2023/06/04 01:41:16;;;;;;;3.60;1.20;;;15.50;72.60;;;;;;4976345;28;20031;-83
2023/06/04 01:43:41;;;;;;;2.47;1.48;;;15.50;72.50;;;;;;4977080;28;20108;-82
2023/06/04 01:46:07;;;;;;;1.80;0.85;;;15.50;72.40;;;;;;4976081;28;20035;-83
2023/06/04 01:48:33;;;;;;;1.67;1.20;;;15.60;72.50;;;;;;4975816;28;20349;-82
2023/06/04 01:50:58;;;;;;;2.60;1.08;;;15.50;72.30;;;;;;4975703;28;20058;-82
2023/06/04 01:53:24;;;;;;;1.55;1.10;;;15.50;72.30;;;;;;4976005;28;20041;-82
2023/06/04 01:55:51;;;;;;;2.70;1.15;;;15.50;72.40;;;;;;4991810;28;20034;-82
2023/06/04 01:58:27;;;;;;;3.47;1.25;;;15.40;72.30;;;;;;4991626;28;20109;-83
2023/06/04 02:00:54;;;;;;;1.35;1.10;;;15.40;72.30;;;;;;4977086;28;20038;-82
2023/06/04 02:03:21;;;;;;;2.53;1.15;;;15.30;72.40;;;;;;4959740;28;20037;-83
2023/06/04 02:05:48;;;;;;;3.08;1.20;;;15.30;72.50;;;;;;4975888;28;20035;-82
2023/06/04 02:08:18;;;;;;;1.95;1.17;;;15.20;72.50;;;;;;4975035;28;20054;-82
2023/06/04 02:10:46;;;;;;;4.70;1.47;;;15.20;72.80;;;;;;4975759;28;20031;-82
2023/06/04 02:13:12;;;;;;;1.50;1.00;;;15.20;72.70;;;;;;4959621;28;20623;-83
2023/06/04 02:15:37;;;;;;;1.98;1.20;;;15.20;72.80;;;;;;4975475;28;20027;-82
2023/06/04 02:18:16;;;;;;;2.15;1.20;;;15.20;72.80;;;;;;4975251;28;20114;-82
2023/06/04 02:20:43;;;;;;;1.55;1.05;;;15.10;72.90;;;;;;4976575;28;20026;-82
2023/06/04 02:23:09;;;;;;;2.15;1.23;;;15.10;73.00;;;;;;4976342;28;20034;-82
2023/06/04 02:25:35;;;;;;;2.65;1.35;;;15.10;73.00;;;;;;4975309;28;20027;-82
2023/06/04 02:28:00;;;;;;;2.97;1.00;;;15.10;73.00;;;;;;4976081;28;20467;-82
2023/06/04 02:30:26;;;;;;;3.63;1.13;;;15.10;73.00;;;;;;4943001;28;20379;-83
2023/06/04 02:32:52;;;;;;;2.33;1.17;;;15.00;73.10;;;;;;4942994;28;20066;-82
2023/06/04 02:35:17;;;;;;;2.08;0.95;;;15.00;73.20;;;;;;4977014;28;20387;-82
2023/06/04 02:37:43;;;;;;;3.10;1.20;;;15.00;73.30;;;;;;4993880;28;20372;-82
2023/06/04 02:40:10;;;;;;;3.15;1.40;;;14.90;73.30;;;;;;4968498;28;20041;-82
2023/06/04 02:42:36;;;;;;;2.70;1.35;;;14.90;73.40;;;;;;4966849;28;20035;-82
2023/06/04 02:45:01;;;;;;;2.17;1.40;;;14.90;73.50;;;;;;4967997;28;20058;-82
2023/06/04 02:47:27;;;;;;;1.85;1.10;;;14.90;73.60;;;;;;4978823;28;20046;-82
2023/06/04 02:49:53;;;;;;;1.80;1.10;;;14.90;73.60;;;;;;5005679;28;20035;-82
2023/06/04 02:52:18;;;;;;;1.50;1.20;;;14.80;73.70;;;;;;4960528;28;20460;-82
2023/06/04 02:54:44;;;;;;;3.35;1.23;;;14.80;73.90;;;;;;4959523;28;20037;-82
2023/06/04 02:57:10;;;;;;;2.00;1.08;;;14.80;74.00;;;;;;4943300;28;20054;-83
2023/06/04 02:59:36;;;;;;;2.83;1.27;;;14.80;74.00;;;;;;4974972;28;20093;-82
2023/06/04 03:02:02;;;;;;;2.08;1.50;;;14.80;74.10;;;;;;4974459;28;20106;-82
2023/06/04 03:04:33;;;;;;;1.60;1.30;;;14.80;74.20;;;;;;4975009;28;20106;-82
2023/06/04 03:07:01;;;;;;;4.25;1.40;;;14.70;74.30;;;;;;4974611;28;20034;-82
2023/06/04 03:09:26;;;;;;;2.53;1.35;;;14.70;74.50;;;;;;4977792;28;20093;-82
2023/06/04 03:11:52;;;;;;;5.68;1.45;;;14.70;74.70;;;;;;4977556;28;20077;-82
2023/06/04 03:14:18;;;;;;;2.15;1.33;;;14.70;74.80;;;;;;4993983;28;20864;-83
2023/06/04 03:16:44;;;;;;;3.20;1.45;;;14.60;74.70;;;;;;4994016;28;20037;-82
2023/06/04 03:19:11;;;;;;;2.35;1.30;;;14.60;74.90;;;;;;4993944;28;20157;-82
2023/06/04 03:21:39;;;;;;;2.03;1.38;;;14.60;74.90;;;;;;4994862;28;20029;-83
2023/06/04 03:24:06;;;;;;;2.50;1.35;;;14.60;75.00;;;;;;4994796;28;20471;-82
2023/06/04 03:26:32;;;;;;;3.25;1.52;;;14.60;75.10;;;;;;4995410;28;20490;-83
2023/06/04 03:28:58;;;;;;;2.03;1.45;;;14.60;75.30;;;;;;4993672;28;20030;-83
2023/06/04 03:31:24;;;;;;;2.13;1.30;;;14.50;75.40;;;;;;4993736;28;20374;-82
2023/06/04 03:33:49;;;;;;;2.95;1.48;;;14.50;75.50;;;;;;4993279;28;20105;-82
2023/06/04 03:36:16;;;;;;;3.40;1.30;;;14.50;75.60;;;;;;4993781;28;20031;-83
2023/06/04 03:38:41;;;;;;;3.58;1.40;;;14.50;75.70;;;;;;4976887;28;20030;-82
2023/06/04 03:41:07;;;;;;;3.97;1.23;;;14.50;75.90;;;;;;4976456;28;20038;-83
2023/06/04 03:43:33;;;;;;;2.58;1.30;;;14.50;75.90;;;;;;4994619;28;20121;-82
2023/06/04 03:45:58;;;;;;;2.53;1.35;;;14.50;75.90;;;;;;4993717;28;20089;-83
2023/06/04 03:48:24;;;;;;;2.58;1.60;;;14.40;76.20;;;;;;4993718;28;20058;-83
2023/06/04 03:50:50;;;;;;;1.40;1.30;;;14.40;76.30;;;;;;4977146;28;20041;-82
2023/06/04 03:53:16;;;;;;;2.17;1.50;;;14.40;76.50;;;;;;4993374;28;20034;-83
2023/06/04 03:55:41;;;;;;;3.15;1.33;;;14.40;76.70;;;;;;4994152;28;20109;-83
2023/06/04 03:58:09;;;;;;;3.20;1.42;;;14.40;76.70;;;;;;4977826;28;20034;-83
2023/06/04 04:00:34;;;;;;;4.13;1.50;;;14.40;76.70;;;;;;4993702;28;20648;-83
2023/06/04 04:03:00;;;;;;;3.45;1.50;;;14.40;76.80;;;;;;4977401;28;20117;-83
2023/06/04 04:05:26;;;;;;;2.92;1.40;;;14.40;76.90;;;;;;4994764;28;20062;-83
2023/06/04 04:07:51;;;;;;;2.55;1.50;;;14.40;76.90;;;;;;4994178;28;20388;-83
2023/06/04 04:10:22;;;;;;;2.72;1.50;;;14.40;77.10;;;;;;4994338;28;20051;-83
2023/06/04 04:12:48;;;;;;;4.45;1.65;;;14.40;77.30;;;;;;4995261;28;20033;-83
2023/06/04 04:15:16;;;;;;;3.90;1.88;;;14.40;77.40;;;;;;4995686;28;20026;-83
2023/06/04 04:17:42;;;;;;;2.63;1.48;;;14.40;77.60;;;;;;5001000;28;20037;-83
2023/06/04 04:20:08;;;;;;;2.83;1.38;;;14.40;77.50;;;;;;4994660;28;20034;-83
2023/06/04 04:22:34;;;;;;;2.58;1.63;;;14.50;77.60;;;;;;4997798;28;20419;-83
2023/06/04 04:25:01;;;;;;;2.20;1.50;;;14.50;77.70;;;;;;4998304;28;20031;-83
2023/06/04 04:27:30;;;;;;;2.45;1.50;;;14.50;77.80;;;;;;5010511;28;20025;-82
2023/06/04 04:29:59;;;;;;;3.53;2.00;;;14.50;77.90;;;;;;5004862;28;20041;-83
2023/06/04 04:32:26;;;;;;;4.40;1.92;;;14.50;77.90;;;;;;4998006;28;20069;-83
2023/06/04 04:34:53;;;;;;;3.72;1.70;;;14.50;78.10;;;;;;4996131;28;20118;-83
2023/06/04 04:37:21;;;;;;;2.13;1.50;;;14.50;78.20;;;;;;4995924;28;20043;-83
2023/06/04 04:39:51;;;;;;;2.80;1.65;;;14.50;78.30;;;;;;4977972;28;20076;-83
2023/06/04 04:42:18;;;;;;;4.22;1.85;;;14.50;78.40;;;;;;4994735;28;20026;-83
2023/06/04 04:44:47;;;;;;;3.13;1.85;;;14.50;78.40;;;;;;4993280;28;20031;-83
2023/06/04 04:47:16;;;;;;;2.53;1.60;;;14.60;78.60;;;;;;4992729;28;20027;-83
2023/06/04 04:49:42;;;;;;;4.60;1.67;;;14.60;78.70;;;;;;4993545;28;20121;-83
2023/06/04 04:52:07;;;;;;;3.00;1.50;;;14.60;78.80;;;;;;4994124;28;20034;-83
2023/06/04 04:54:33;;;;;;;3.50;1.88;;;14.50;78.90;;;;;;4997369;28;20030;-83
2023/06/04 04:56:59;;;;;;;3.70;1.95;;;14.60;79.00;;;;;;4996988;28;20042;-83
2023/06/04 04:59:25;;;;;;;2.30;1.58;;;14.60;79.10;;;;;;4996995;28;20069;-83
2023/06/04 05:01:51;;;;;;;2.97;1.70;;;14.60;79.20;;;;;;4996460;28;20026;-83
2023/06/04 05:04:20;;;;;;;2.30;1.58;;;14.60;79.30;;;;;;4996190;28;20033;-83
2023/06/04 05:06:45;;;;;;;3.25;1.63;;;14.60;79.40;;;;;;4996758;28;20027;-83
2023/06/04 05:09:11;;;;;;;2.88;1.95;;;14.60;79.40;;;;;;4979874;28;20057;-83
2023/06/04 05:11:37;;;;;;;4.28;1.80;;;14.60;79.60;;;;;;4980205;28;20034;-83
2023/06/04 05:14:02;;;;;;;4.55;1.85;;;14.70;79.70;;;;;;4979903;28;20496;-83
2023/06/04 05:16:29;;;;;;;3.25;1.88;;;14.70;79.80;;;;;;4996889;28;20517;-83
2023/06/04 05:18:56;;;;;;;4.13;1.90;;;14.70;79.80;;;;;;4996562;28;20031;-82
2023/06/04 05:21:22;;;;;;;3.63;1.75;;;14.80;79.80;;;;;;4980761;28;20109;-83
2023/06/04 05:23:50;;;;;;;4.20;1.83;;;14.80;79.70;;;;;;4996185;28;20041;-83
2023/06/04 05:26:16;;;;;;;3.03;1.90;;;14.80;79.70;;;;;;4980136;28;20031;-83
2023/06/04 05:28:43;;;;;;;3.13;1.70;;;14.80;79.80;;;;;;4980335;28;20026;-83
2023/06/04 05:31:09;;;;;;;3.55;1.73;;;14.80;79.80;;;;;;4980132;28;20022;-83
2023/06/04 05:33:35;;;;;;;3.20;1.85;;;14.80;79.80;;;;;;4996271;28;20030;-83
2023/06/04 05:36:04;;;;;;;4.45;1.77;;;14.80;79.90;;;;;;4997757;28;20018;-83
2023/06/04 05:38:30;;;;;;;2.08;1.52;;;14.80;80.00;;;;;;4980319;28;20031;-83
2023/06/04 05:40:56;;;;;;;2.53;1.52;;;14.80;79.90;;;;;;4996286;28;20025;-83
2023/06/04 05:43:22;;;;;;;3.60;1.85;;;14.90;80.00;;;;;;4996040;28;20034;-83
2023/06/04 05:45:48;;;;;;;3.42;1.52;;;14.90;79.90;;;;;;4996615;28;20030;-83
2023/06/04 05:48:13;;;;;;;2.92;1.38;;;14.90;80.00;;;;;;4997539;28;20476;-83
2023/06/04 05:50:39;;;;;;;3.17;1.77;;;15.00;80.00;;;;;;4996206;28;20030;-83
2023/06/04 05:53:05;;;;;;;2.50;1.80;;;15.00;79.90;;;;;;4997464;28;20374;-83
2023/06/04 05:55:30;;;;;;;4.88;1.90;;;15.00;79.80;;;;;;4997282;28;20026;-83
2023/06/04 05:57:56;;;;;;;3.35;1.58;;;15.10;79.90;;;;;;4980236;28;20026;-83
2023/06/04 06:00:22;;;;;;;3.90;1.67;;;15.10;79.90;;;;;;4981824;28;20390;-83
2023/06/04 06:02:49;;;;;;;2.45;1.48;;;15.10;79.80;;;;;;5013515;28;20029;-82
2023/06/04 06:05:18;;;;;;;3.17;1.90;;;15.20;79.80;;;;;;5018921;28;20027;-82
2023/06/04 06:07:47;;;;;;;2.95;1.75;;;15.20;79.90;;;;;;5002721;28;20081;-81
2023/06/04 06:10:13;;;;;;;2.97;2.00;;;15.20;80.00;;;;;;5018119;28;20022;-82
2023/06/04 06:12:39;;;;;;;3.53;2.15;;;15.30;80.00;;;;;;4994869;28;20041;-82
2023/06/04 06:15:06;;;;;;;2.95;1.80;;;15.30;79.90;;;;;;4996412;28;20378;-82
2023/06/04 06:17:32;;;;;;;3.67;1.60;;;15.40;79.80;;;;;;4996009;28;20031;-82
2023/06/04 06:19:58;;;;;;;3.58;1.73;;;15.40;79.90;;;;;;4979067;28;20113;-82
2023/06/04 06:22:24;;;;;;;2.80;1.75;;;15.50;80.00;;;;;;4994969;28;20132;-82
2023/06/04 06:24:50;;;;;;;2.97;1.50;;;15.50;79.80;;;;;;4995215;28;20039;-82
2023/06/04 06:27:16;;;;;;;5.38;1.92;;;15.60;79.80;;;;;;4995859;28;20022;-82
2023/06/04 06:29:42;;;;;;;4.78;1.83;;;15.70;79.60;;;;;;4994891;28;20036;-82
2023/06/04 06:32:08;;;;;;;2.92;1.45;;;15.70;79.70;;;;;;4978310;28;20389;-81
2023/06/04 06:34:34;;;;;;;1.48;1.35;;;15.80;79.70;;;;;;4995213;28;20053;-82
2023/06/04 06:37:00;;;;;;;3.65;1.55;;;15.80;79.60;;;;;;4994326;28;20022;-82
2023/06/04 06:39:29;;;;;;;4.05;2.00;;;15.90;79.50;;;;;;4978041;28;20076;-82
2023/06/04 06:41:54;;;;;;;3.17;1.50;;;15.90;79.60;;;;;;4995357;28;20414;-82
2023/06/04 06:44:21;;;;;;;2.30;1.60;;;16.00;79.50;;;;;;4994167;28;20088;-82
2023/06/04 06:46:48;;;;;;;2.95;1.60;;;16.00;79.50;;;;;;4977803;28;20034;-82
2023/06/04 06:49:14;;;;;;;1.90;1.60;;;16.20;79.60;;;;;;4993672;28;20072;-82
2023/06/04 06:51:40;;;;;;;3.63;1.60;;;16.30;79.40;;;;;;4995409;28;20471;-82
2023/06/04 06:54:08;;;;;;;2.17;1.25;;;16.40;79.20;;;;;;4994296;28;20030;-81
2023/06/04 06:56:34;;;;;;;3.28;1.70;;;16.50;79.00;;;;;;4994295;28;20092;-82
2023/06/04 06:59:00;;;;;;;1.90;1.45;;;16.50;78.70;;;;;;4978191;28;20073;-82
2023/06/04 07:01:26;;;;;;;3.30;1.65;;;16.60;78.50;;;;;;4978090;28;20650;-81
2023/06/04 07:03:52;;;;;;;4.55;1.75;;;16.60;78.00;;;;;;4994265;28;20125;-82
2023/06/04 07:06:18;;;;;;;2.80;1.40;;;16.70;78.00;;;;;;4993970;28;20106;-81
2023/06/04 07:08:43;;;;;;;3.50;1.90;;;16.80;77.90;;;;;;4995550;28;20054;-82
2023/06/04 07:11:11;;;;;;;3.80;1.65;;;16.80;77.40;;;;;;4977994;28;20038;-82
2023/06/04 07:13:40;;;;;;;3.47;1.65;;;16.80;77.20;;;;;;4993584;28;20552;-82
2023/06/04 07:16:08;;;;;;;2.13;1.40;;;16.90;77.40;;;;;;4992896;28;20538;-82
2023/06/04 07:18:34;;;;;;;1.67;1.13;;;17.00;77.40;;;;;;4978097;28;20364;-82
2023/06/04 07:21:00;;;;;;;3.00;1.80;;;17.10;77.10;;;;;;4993670;28;20038;-82
2023/06/04 07:23:25;;;;;;;4.60;1.70;;;17.10;76.30;;;;;;4993747;28;20037;-82
2023/06/04 07:25:51;;;;;;;4.00;1.45;;;17.10;76.10;;;;;;4994423;28;20079;-82
2023/06/04 07:28:17;;;;;;;2.78;1.45;;;17.20;76.20;;;;;;4995581;28;20027;-82
2023/06/04 07:30:45;;;;;;;2.50;1.80;;;17.30;76.20;;;;;;4977645;28;20030;-82
2023/06/04 07:33:11;;;;;;;2.83;1.80;;;17.40;76.20;;;;;;4995176;28;20491;-81
2023/06/04 07:35:37;;;;;;;2.17;1.40;;;17.40;75.60;;;;;;4978263;28;20041;-82
2023/06/04 07:38:02;;;;;;;1.70;1.20;;;17.40;75.80;;;;;;4994438;28;20030;-82
2023/06/04 07:40:28;;;;;;;1.98;1.45;;;17.50;75.90;;;;;;4994814;28;20030;-82
2023/06/04 07:42:54;;;;;;;2.03;1.17;;;17.60;75.80;;;;;;4994882;28;20044;-82
2023/06/04 07:45:20;;;;;;;3.78;1.48;;;17.70;75.40;;;;;;4996709;28;20030;-82
2023/06/04 07:47:45;;;;;;;3.78;1.25;;;17.70;74.40;;;;;;4991187;28;20034;-82
2023/06/04 07:50:11;;;;;;;2.83;1.35;;;17.80;74.50;;;;;;5001758;28;20023;-83
2023/06/04 07:52:37;;;;;;;2.15;1.30;;;17.90;74.10;;;;;;5001691;28;20030;-82
2023/06/04 07:55:03;;;;;;;1.75;1.25;;;17.90;73.80;;;;;;5018272;28;20034;-82
2023/06/04 07:57:29;;;;;;;1.75;1.20;;;18.00;73.90;;;;;;5015669;28;20034;-80
2023/06/04 07:59:56;;;;;;;3.70;1.35;;;18.10;73.80;;;;;;4998851;28;20128;-82
2023/06/04 08:02:22;;;;;;;1.42;1.20;;;18.20;73.60;;;;;;4994925;28;20093;-81
2023/06/04 08:04:48;;;;;;;2.10;1.17;;;18.30;73.50;;;;;;4993489;28;20382;-82
2023/06/04 08:07:14;;;;;;;3.25;1.10;;;18.40;72.90;;;;;;4994507;28;20026;-82
2023/06/04 08:09:39;;;;;;;2.78;1.52;;;18.50;72.50;;;;;;4992872;28;20050;-83
2023/06/04 08:12:06;;;;;;;3.25;1.40;;;18.50;72.50;;;;;;4993396;28;20359;-83
2023/06/04 08:14:32;;;;;;;2.65;1.70;;;18.60;72.60;;;;;;4993220;28;20030;-82
2023/06/04 08:16:58;;;;;;;2.00;1.35;;;18.70;71.40;;;;;;4993098;28;20022;-82
2023/06/04 08:19:24;;;;;;;2.17;1.42;;;18.70;71.50;;;;;;4994665;28;20030;-82
2023/06/04 08:21:50;;;;;;;2.05;1.20;;;18.80;71.10;;;;;;4994026;28;20406;-82
2023/06/04 08:24:16;;;;;;;2.13;1.20;;;18.80;70.60;;;;;;4994025;28;20018;-82
2023/06/04 08:26:44;;;;;;;2.92;1.02;;;18.80;70.30;;;;;;4994573;28;20099;-82
2023/06/04 08:29:13;;;;;;;1.35;1.20;;;18.90;70.40;;;;;;4980933;28;20030;-82
2023/06/04 08:31:39;;;;;;;2.88;1.25;;;19.00;70.30;;;;;;4996780;28;20581;-82
2023/06/04 08:34:05;;;;;;;1.83;1.00;;;19.10;70.00;;;;;;4997116;28;20018;-82
2023/06/04 08:36:32;;;;;;;4.57;1.33;;;19.20;69.80;;;;;;4980858;28;20029;-82
2023/06/04 08:38:58;;;;;;;1.85;0.90;;;19.20;68.60;;;;;;4980819;28;20034;-81
2023/06/04 08:41:27;;;;;;;1.90;1.30;;;19.20;68.40;;;;;;4980615;28;20022;-82
2023/06/04 08:43:56;;;;;;;2.08;1.20;;;19.30;68.70;;;;;;4996960;28;20027;-83
2023/06/04 08:46:22;;;;;;;2.70;1.10;;;19.30;68.40;;;;;;4980500;28;20386;-82
2023/06/04 08:48:50;;;;;;;2.55;1.17;;;19.40;68.30;;;;;;4980802;28;20030;-82
2023/06/04 08:51:16;;;;;;;2.47;0.90;;;19.50;67.90;;;;;;4996761;28;20041;-83
2023/06/04 08:53:42;;;;;;;1.75;1.10;;;19.50;68.00;;;;;;4980644;28;20386;-84
2023/06/04 08:56:08;;;;;;;1.10;0.95;;;19.60;67.20;;;;;;4980642;28;20023;-84
2023/06/04 08:58:36;;;;;;;1.48;1.00;;;19.70;66.50;;;;;;4998171;28;20026;-84
2023/06/04 09:01:03;;;;;;;1.88;0.73;;;19.80;66.50;;;;;;4996624;28;20027;-83
2023/06/04 09:03:32;;;;;;;2.78;1.10;;;19.80;66.20;;;;;;4979253;28;20046;-86
2023/06/04 09:05:59;;;;;;;1.25;0.80;;;19.90;66.10;;;;;;4980213;28;20150;-87
2023/06/04 09:08:27;;;;;;;2.78;1.20;;;20.00;66.10;;;;;;4996921;28;20058;-90
2023/06/04 09:10:54;;;;;;;2.58;1.30;;;20.00;65.30;;;;;;5004323;28;20038;-87
2023/06/04 09:13:22;;;;;;;1.58;0.95;;;20.10;64.60;;;;;;5007315;28;20030;-88
2023/06/04 09:16:07;;;;;;;2.05;1.17;;;20.10;64.40;;;;;;5008886;28;20027;-88
2023/06/04 09:18:33;;;;;;;2.03;1.02;;;20.10;64.30;;;;;;4992005;28;20189;-87
2023/06/04 09:21:07;;;;;;;1.70;1.02;;;20.20;65.00;;;;;;5006645;28;20053;-88
2023/06/04 09:23:48;;;;;;;1.50;0.77;;;20.20;64.70;;;;;;5003332;28;20057;-88
2023/06/04 09:26:14;;;;;;;1.73;0.95;;;20.30;64.80;;;;;;4984665;28;20038;-89
2023/06/04 09:28:44;;;;;;;4.32;0.90;;;20.40;65.00;;;;;;4985670;28;20033;-89
2023/06/04 09:31:22;;;;;;;1.88;1.00;;;20.50;64.80;;;;;;5005080;28;20026;-88
2023/06/04 09:33:49;;;;;;;1.52;0.90;;;20.50;63.90;;;;;;4984144;28;20489;-89
2023/06/04 09:36:16;;;;;;;1.85;1.00;;;20.60;64.00;;;;;;4985420;28;20030;-88
2023/06/04 09:38:42;;;;;;;2.67;1.30;;;20.60;63.00;;;;;;4997529;28;20057;-87
2023/06/04 09:41:12;;;;;;;2.22;1.00;;;20.60;62.70;;;;;;5003170;28;20041;-88
2023/06/04 09:43:38;;;;;;;1.20;0.98;;;20.70;62.70;;;;;;5003257;28;20014;-89
2023/06/04 09:46:12;;;;;;;2.47;0.80;;;20.70;62.80;;;;;;5018880;28;20039;-86
2023/06/04 09:48:40;;;;;;;4.13;1.20;;;20.80;62.00;;;;;;5015543;28;20545;-86
2023/06/04 09:51:12;;;;;;;1.50;0.90;;;20.90;60.10;;;;;;4982987;28;20113;-85
2023/06/04 09:53:39;;;;;;;2.08;0.90;;;20.90;60.20;;;;;;4996987;28;20065;-86
2023/06/04 09:56:06;;;;;;;2.53;1.20;;;21.00;60.50;;;;;;4980236;28;20370;-87
2023/06/04 09:58:32;;;;;;;1.02;0.75;;;21.00;60.20;;;;;;4996219;28;20030;-87
2023/06/04 10:01:01;;;;;;;1.33;1.08;;;21.10;59.00;;;;;;4996071;28;20447;-86
2023/06/04 10:03:34;;;;;;;0.95;0.75;;;21.10;57.90;;;;;;4995767;28;20382;-86
2023/06/04 10:06:05;;;;;;;1.80;0.80;;;21.10;57.70;;;;;;4997040;28;20489;-86
2023/06/04 10:08:32;;;;;;;1.20;0.70;;;21.20;57.80;;;;;;4979261;28;20120;-84
2023/06/04 10:11:02;;;;;;;1.30;0.70;;;21.30;57.50;;;;;;4979049;28;20026;-87
2023/06/04 10:13:31;;;;;;;1.83;0.75;;;21.30;56.70;;;;;;4979726;28;20034;-86
2023/06/04 10:15:58;;;;;;;1.50;1.00;;;21.30;56.70;;;;;;4979079;28;20053;-86
2023/06/04 10:18:25;;;;;;;1.73;1.00;;;21.40;57.00;;;;;;4996453;28;20478;-85
2023/06/04 10:20:54;;;;;;;1.52;0.93;;;21.30;55.90;;;;;;4978931;28;20474;-85
2023/06/04 10:23:22;;;;;;;1.83;1.00;;;21.30;55.90;;;;;;4995075;28;20475;-86
2023/06/04 10:25:50;;;;;;;2.70;1.02;;;21.30;56.30;;;;;;4996319;28;20073;-86
2023/06/04 10:28:19;;;;;;;1.77;0.90;;;21.40;56.10;;;;;;4978936;28;20049;-86
2023/06/04 10:30:45;;;;;;;1.80;0.82;;;21.40;56.40;;;;;;4996500;28;20022;-86
2023/06/04 10:33:10;;;;;;;2.65;0.95;;;21.40;57.10;;;;;;4995425;28;20502;-86
2023/06/04 10:35:36;;;;;;;2.10;0.93;;;21.40;57.00;;;;;;4995200;28;20034;-87
2023/06/04 10:38:13;;;;;;;3.88;0.93;;;21.50;56.90;;;;;;4996758;28;20109;-88
2023/06/04 10:40:39;;;;;;;1.27;0.80;;;21.50;56.90;;;;;;4995712;28;20080;-87
2023/06/04 10:43:10;;;;;;;3.13;1.30;;;21.50;56.80;;;;;;4978849;28;20475;-87
2023/06/04 10:45:37;;;;;;;1.20;1.05;;;21.50;56.90;;;;;;4995560;28;20076;-85
2023/06/04 10:48:07;;;;;;;2.58;1.10;;;21.50;57.00;;;;;;4995725;28;20034;-87
2023/06/04 10:50:35;;;;;;;2.15;1.10;;;21.60;57.20;;;;;;4995887;28;20029;-86
2023/06/04 10:53:05;;;;;;;1.05;0.98;;;21.60;57.40;;;;;;4996169;28;20061;-88
2023/06/04 10:55:31;;;;;;;1.35;0.80;;;21.60;57.50;;;;;;4978437;28;20030;-87
2023/06/04 10:58:02;;;;;;;2.75;1.00;;;21.70;57.70;;;;;;4978285;28;20077;-86
2023/06/04 11:00:39;;;;;;;1.63;0.98;;;21.80;57.60;;;;;;4978888;28;20066;-89
2023/06/04 11:03:08;;;;;;;1.25;0.80;;;21.80;57.80;;;;;;4978896;28;20058;-90
2023/06/04 11:05:42;;;;;;;2.08;0.85;;;21.90;57.80;;;;;;4995350;28;20034;-92
2023/06/04 11:08:10;;;;;;;2.38;0.90;;;21.90;58.10;;;;;;4978558;28;20101;-92
2023/06/04 11:10:45;;;;;;;3.55;0.93;;;22.00;57.90;;;;;;4995363;28;20037;-90
2023/06/04 11:13:12;;;;;;;1.88;1.05;;;22.10;56.90;;;;;;4979061;28;20064;-88
2023/06/04 11:15:39;;;;;;;2.05;1.17;;;22.10;56.70;;;;;;4978512;28;20114;-86
2023/06/04 11:18:05;;;;;;;2.30;1.40;;;22.10;56.50;;;;;;4994921;28;20045;-87
2023/06/04 11:20:31;;;;;;;2.85;0.75;;;22.20;56.40;;;;;;4996230;28;20026;-88
2023/06/04 11:22:59;;;;;;;2.70;1.10;;;22.20;56.50;;;;;;4979651;28;20471;-86
2023/06/04 11:25:26;;;;;;;1.25;0.90;;;22.30;56.60;;;;;;4999215;28;20093;-85
2023/06/04 11:27:55;;;;;;;1.13;0.90;;;22.30;56.50;;;;;;5002739;28;20075;-86
2023/06/04 11:30:21;;;;;;;1.25;1.00;;;22.40;56.00;;;;;;5002268;28;20022;-86
2023/06/04 11:32:47;;;;;;;1.88;0.90;;;22.40;55.40;;;;;;4999057;28;20022;-84
2023/06/04 11:35:13;;;;;;;1.77;1.10;;;22.40;55.70;;;;;;5015775;28;20458;-86
2023/06/04 11:37:39;;;;;;;1.98;0.90;;;22.50;55.90;;;;;;4996388;28;20034;-85
2023/06/04 11:40:19;;;;;;;1.48;0.93;;;22.50;55.20;;;;;;4983773;28;20046;-86
2023/06/04 11:42:48;;;;;;;1.65;0.90;;;22.50;55.60;;;;;;4991191;28;20014;-86
2023/06/04 11:45:15;;;;;;;1.95;0.95;;;22.60;55.40;;;;;;4984235;28;20057;-86
2023/06/04 11:47:52;;;;;;;2.53;1.08;;;22.60;55.80;;;;;;4980836;28;20086;-87
2023/06/04 11:50:28;;;;;;;1.23;0.82;;;22.60;55.20;;;;;;4983164;28;20027;-87
2023/06/04 11:52:54;;;;;;;1.80;0.90;;;22.70;55.30;;;;;;4996318;28;20109;-90
2023/06/04 11:55:24;;;;;;;1.75;1.00;;;22.70;55.30;;;;;;4978306;28;20057;-87
2023/06/04 11:57:59;;;;;;;1.60;1.00;;;22.70;54.60;;;;;;4995655;28;20022;-89
2023/06/04 12:00:26;;;;;;;2.45;1.13;;;22.70;55.20;;;;;;4978708;28;20026;-90
2023/06/04 12:02:56;;;;;;;1.50;1.00;;;22.70;55.20;;;;;;4977859;28;20023;-91
2023/06/04 12:05:34;;;;;;;1.33;0.88;;;22.80;55.30;;;;;;4978249;28;20030;-90
2023/06/04 12:08:10;;;;;;;2.33;1.00;;;22.80;55.10;;;;;;4974015;28;20051;-90
2023/06/04 12:10:43;;;;;;;0.80;0.70;;;22.90;55.10;;;;;;4959089;28;20395;-89
2023/06/04 12:13:11;;;;;;;0.90;0.73;;;22.90;55.20;;;;;;4974981;28;20034;-90
2023/06/04 12:15:37;;;;;;;1.30;0.80;;;22.90;55.40;;;;;;4958547;28;20098;-89
2023/06/04 12:18:04;;;;;;;1.48;1.00;;;23.00;54.70;;;;;;4974449;28;20054;-90
2023/06/04 12:20:41;;;;;;;1.38;0.95;;;23.00;54.50;;;;;;4974782;28;20026;-89
2023/06/04 12:23:07;;;;;;;1.98;1.20;;;23.00;54.90;;;;;;4974515;28;20117;-90
2023/06/04 12:25:34;;;;;;;3.60;1.25;;;23.00;54.30;;;;;;4974725;28;20121;-89
2023/06/04 12:28:04;;;;;;;1.67;1.15;;;23.10;54.30;;;;;;4961642;28;20027;-88
2023/06/04 12:30:41;;;;;;;2.17;1.10;;;23.10;54.40;;;;;;4961202;28;20475;-87
2023/06/04 12:33:07;;;;;;;3.03;1.17;;;23.10;54.60;;;;;;4959367;28;20070;-90
2023/06/04 12:35:34;;;;;;;1.15;1.00;;;23.20;54.90;;;;;;4975945;28;20027;-90
2023/06/04 12:38:02;;;;;;;1.60;1.02;;;23.20;54.50;;;;;;4975520;28;20031;-89
2023/06/04 12:40:28;;;;;;;1.88;1.00;;;23.30;55.00;;;;;;4975658;28;20248;-90
2023/06/04 12:42:53;;;;;;;2.58;1.30;;;23.30;54.40;;;;;;4975412;28;20535;-89
2023/06/04 12:45:27;;;;;;;1.80;1.35;;;23.30;53.50;;;;;;4958788;28;20035;-88
2023/06/04 12:47:53;;;;;;;1.70;1.00;;;23.30;53.60;;;;;;4958744;28;20143;-87